Station History

Weather Underground - logo

Station Historical Data
Daily Summary for November 25, 2017 Units:  English    Metric   Both
« Previous Day
Next Day »
Daily Weekly Monthly Yearly Custom
  High: Low: Average:
Temperature: 76.8 °F 47.1 °F 59.8 °F
Dew Point: 59.9 °F 45.5 °F 53.5 °F
Humidity: 96 % 52 % 82 %
Wind Speed: 2.3 mph 0.0 mph 0.2 mph
Wind Gust: 2.0 mph - -
Wind:- - SSW
Pressure: 30.06 in 29.95 in -
Precipitation: 0.01 in    
Historical Graphs
 
 
Tabular Data for November 25, 2017
Time Temperature Dew Point Pressure Wind Wind Speed Wind Gust Humidity Rainfall Rate (Hourly)
00:00 52.4 °F 50.1 °F 30.03 in Calm     92 % 0.00 in
00:05 51.9 °F 49.6 °F 30.04 in Calm     92 % 0.00 in
00:10 51.6 °F 49.4 °F 30.04 in Calm     92 % 0.00 in
00:15 51.3 °F 49.1 °F 30.04 in Calm     92 % 0.00 in
00:20 51.1 °F 49.1 °F 30.04 in Calm     93 % 0.00 in
00:25 51.0 °F 49.0 °F 30.04 in Calm     93 % 0.00 in
00:30 51.0 °F 49.3 °F 30.03 in Calm     94 % 0.00 in
00:35 51.1 °F 49.4 °F 30.03 in Calm     94 % 0.00 in
00:40 51.1 °F 49.4 °F 30.03 in Calm     94 % 0.00 in
00:45 51.1 °F 49.4 °F 30.03 in Calm     94 % 0.00 in
00:50 50.9 °F 49.2 °F 30.03 in Calm     94 % 0.00 in
00:55 50.8 °F 49.1 °F 30.03 in Calm     94 % 0.00 in
01:00 50.7 °F 49.0 °F 30.02 in Calm     94 % 0.00 in
01:05 50.6 °F 48.9 °F 30.02 in Calm     94 % 0.00 in
01:10 50.6 °F 48.9 °F 30.02 in Calm     94 % 0.00 in
01:15 50.6 °F 48.9 °F 30.02 in Calm     94 % 0.00 in
01:20 50.5 °F 48.8 °F 30.03 in Calm     94 % 0.00 in
01:25 50.3 °F 48.6 °F 30.02 in Calm     94 % 0.00 in
01:30 50.4 °F 48.7 °F 30.02 in Calm     94 % 0.00 in
01:35 50.6 °F 49.2 °F 30.03 in Calm     95 % 0.00 in
01:40 50.5 °F 48.8 °F 30.02 in Calm     94 % 0.00 in
01:45 49.9 °F 48.0 °F 30.02 in Calm     93 % 0.00 in
01:50 49.8 °F 47.9 °F 30.02 in Calm     93 % 0.00 in
01:55 49.6 °F 47.7 °F 30.02 in Calm     93 % 0.00 in
02:00 49.6 °F 47.9 °F 30.02 in Calm     94 % 0.00 in
02:05 49.9 °F 48.2 °F 30.01 in Calm     94 % 0.00 in
02:10 50.0 °F 48.6 °F 30.01 in Calm     95 % 0.00 in
02:15 49.9 °F 48.2 °F 30.01 in Calm     94 % 0.00 in
02:20 49.3 °F 47.4 °F 30.01 in Calm     93 % 0.00 in
02:30 48.6 °F 46.7 °F 30.02 in Calm     93 % 0.00 in
02:35 48.3 °F 46.4 °F 30.02 in Calm     93 % 0.00 in
02:45 48.8 °F 47.4 °F 30.02 in Calm     95 % 0.00 in
02:50 48.8 °F 47.4 °F 30.02 in Calm     95 % 0.00 in
02:55 48.8 °F 47.4 °F 30.01 in Calm     95 % 0.00 in
02:58 48.8 °F 47.4 °F 30.01 in Calm     95 % 0.00 in
03:03 49.0 °F 47.6 °F 30.01 in Calm     95 % 0.00 in
03:08 49.1 °F 47.7 °F 30.01 in Calm     95 % 0.00 in
03:13 49.1 °F 47.7 °F 30.02 in Calm     95 % 0.00 in
03:18 49.0 °F 47.6 °F 30.01 in Calm     95 % 0.00 in
03:23 49.0 °F 47.6 °F 30.02 in Calm     95 % 0.00 in
03:28 49.0 °F 47.6 °F 30.02 in Calm     95 % 0.00 in
03:33 48.9 °F 47.5 °F 30.02 in Calm     95 % 0.00 in
03:38 49.2 °F 47.8 °F 30.01 in Calm     95 % 0.00 in
03:43 49.1 °F 47.7 °F 30.01 in Calm     95 % 0.00 in
03:53 49.6 °F 48.2 °F 30.02 in Calm     95 % 0.00 in
03:58 49.5 °F 48.1 °F 30.02 in Calm     95 % 0.00 in
04:03 49.5 °F 48.1 °F 30.02 in Calm     95 % 0.00 in
04:08 49.6 °F 48.2 °F 30.02 in Calm     95 % 0.00 in
04:13 49.6 °F 48.2 °F 30.01 in Calm     95 % 0.00 in
04:18 49.6 °F 48.2 °F 30.01 in Calm     95 % 0.00 in
04:23 49.6 °F 48.2 °F 30.01 in Calm     95 % 0.00 in
04:28 49.7 °F 48.3 °F 30.01 in Calm     95 % 0.00 in
04:33 49.7 °F 48.3 °F 30.01 in Calm     95 % 0.00 in
04:38 50.1 °F 49.0 °F 30.02 in Calm     96 % 0.00 in
04:43 50.3 °F 49.2 °F 30.02 in Calm     96 % 0.00 in
04:48 50.5 °F 49.4 °F 30.02 in Calm     96 % 0.00 in
04:53 50.4 °F 49.3 °F 30.01 in Calm     96 % 0.00 in
04:58 50.4 °F 49.3 °F 30.02 in Calm     96 % 0.00 in
05:03 50.5 °F 49.4 °F 30.02 in Calm     96 % 0.00 in
05:08 50.4 °F 49.3 °F 30.02 in Calm     96 % 0.00 in
05:13 50.4 °F 49.3 °F 30.02 in Calm     96 % 0.00 in
05:18 50.3 °F 48.9 °F 30.02 in Calm     95 % 0.00 in
05:23 50.1 °F 48.7 °F 30.02 in Calm     95 % 0.00 in
05:25 50.1 °F 48.7 °F 30.02 in Calm     95 % 0.00 in
05:30 49.7 °F 48.0 °F 30.02 in Calm     94 % 0.00 in
05:35 49.2 °F 47.5 °F 30.02 in Calm     94 % 0.00 in
05:40 49.2 °F 47.5 °F 30.02 in Calm     94 % 0.00 in
05:45 49.3 °F 47.9 °F 30.02 in Calm     95 % 0.00 in
05:50 49.3 °F 47.9 °F 30.02 in Calm     95 % 0.00 in
05:55 49.3 °F 47.9 °F 30.02 in Calm     95 % 0.00 in
06:00 49.1 °F 47.4 °F 30.02 in Calm     94 % 0.00 in
06:05 48.9 °F 47.2 °F 30.02 in Calm     94 % 0.00 in
06:10 48.7 °F 47.1 °F 30.02 in Calm     94 % 0.00 in
06:15 48.5 °F 46.9 °F 30.02 in Calm     94 % 0.00 in
06:20 48.2 °F 46.6 °F 30.02 in Calm     94 % 0.01 in
06:25 47.8 °F 46.2 °F 30.02 in Calm     94 % 0.01 in
06:30 47.4 °F 45.5 °F 30.02 in Calm     93 % 0.01 in
06:35 47.1 °F 45.5 °F 30.02 in Calm     94 % 0.01 in
06:40 47.1 °F 45.5 °F 30.02 in Calm     94 % 0.01 in
06:45 47.1 °F 45.7 °F 30.02 in Calm     95 % 0.01 in
06:50 47.3 °F 45.9 °F 30.02 in Calm     95 % 0.01 in
06:55 47.3 °F 45.9 °F 30.02 in Calm     95 % 0.01 in
07:00 47.5 °F 46.1 °F 30.02 in Calm     95 % 0.01 in
07:05 47.5 °F 46.1 °F 30.02 in Calm     95 % 0.01 in
07:10 47.4 °F 46.0 °F 30.02 in Calm     95 % 0.01 in
07:15 47.3 °F 45.9 °F 30.02 in Calm     95 % 0.01 in
07:20 47.4 °F 46.0 °F 30.03 in Calm     95 % 0.00 in
07:25 47.6 °F 46.2 °F 30.03 in Calm     95 % 0.00 in
07:30 47.8 °F 46.4 °F 30.03 in Calm     95 % 0.00 in
07:35 48.3 °F 47.2 °F 30.03 in Calm     96 % 0.00 in
07:40 48.8 °F 47.7 °F 30.03 in Calm     96 % 0.00 in
07:45 50.2 °F 49.1 °F 30.04 in Calm     96 % 0.00 in
07:50 51.3 °F 50.2 °F 30.04 in Calm     96 % 0.00 in
07:55 52.5 °F 51.4 °F 30.04 in Calm     96 % 0.00 in
08:00 53.4 °F 51.7 °F 30.04 in Calm     94 % 0.00 in
08:05 54.1 °F 51.8 °F 30.05 in Calm     92 % 0.00 in
08:10 55.0 °F 52.4 °F 30.05 in Calm     91 % 0.00 in
08:15 56.0 °F 53.1 °F 30.05 in Calm     90 % 0.00 in
08:20 57.1 °F 53.6 °F 30.05 in Calm     88 % 0.00 in
08:25 57.9 °F 53.7 °F 30.06 in Calm     86 % 0.00 in
08:30 58.3 °F 53.8 °F 30.06 in Calm     85 % 0.00 in
08:35 58.8 °F 54.0 °F 30.06 in Calm     84 % 0.00 in
08:40 59.5 °F 54.0 °F 30.06 in SE 1.2 mph   82 % 0.00 in
08:45 59.8 °F 54.0 °F 30.06 in SE 1.2 mph 1.2 mph 81 % 0.00 in
08:50 60.1 °F 53.9 °F 30.05 in SE 2.0 mph 2.0 mph 80 % 0.00 in
08:56 60.4 °F 54.2 °F 30.05 in SE 1.2 mph 1.2 mph 80 % 0.00 in
09:01 60.9 °F 55.0 °F 30.06 in Calm     81 % 0.00 in
09:06 61.6 °F 55.0 °F 30.06 in SSE 1.2 mph   79 % 0.00 in
09:11 62.0 °F 54.7 °F 30.06 in SSE 1.2 mph 1.2 mph 77 % 0.00 in
09:16 62.5 °F 54.8 °F 30.06 in SSE 2.3 mph   76 % 0.00 in
09:21 62.6 °F 55.3 °F 30.06 in Calm     77 % 0.00 in
09:26 63.2 °F 55.5 °F 30.06 in Calm     76 % 0.00 in
09:31 63.5 °F 55.4 °F 30.06 in Calm     75 % 0.00 in
09:36 63.7 °F 55.3 °F 30.06 in East 1.2 mph 1.2 mph 74 % 0.00 in
09:41 64.3 °F 55.8 °F 30.06 in Calm     74 % 0.00 in
09:46 65.0 °F 56.1 °F 30.06 in South 1.2 mph 1.2 mph 73 % 0.00 in
09:51 65.6 °F 56.7 °F 30.05 in Calm     73 % 0.00 in
09:56 66.0 °F 57.1 °F 30.05 in Calm     73 % 0.00 in
10:01 66.1 °F 56.8 °F 30.05 in Calm     72 % 0.00 in
10:06 66.4 °F 57.9 °F 30.05 in ENE 1.2 mph 1.2 mph 74 % 0.00 in
10:11 66.8 °F 57.5 °F 30.05 in Calm     72 % 0.00 in
10:16 67.1 °F 57.8 °F 30.05 in Calm     72 % 0.00 in
10:21 67.4 °F 57.7 °F 30.04 in SE 1.2 mph 1.2 mph 71 % 0.00 in
10:26 67.7 °F 58.0 °F 30.04 in SE 1.2 mph   71 % 0.00 in
10:27 67.7 °F 58.0 °F 30.04 in SSE 1.2 mph 1.2 mph 71 % 0.00 in
10:32 68.0 °F 57.8 °F 30.04 in NW 1.2 mph 1.2 mph 70 % 0.00 in
10:35 67.7 °F 57.2 °F 30.04 in NW 1.2 mph 1.2 mph 69 % 0.00 in
10:40 67.6 °F 57.5 °F 30.04 in SSW 1.2 mph 1.2 mph 70 % 0.00 in
10:45 67.4 °F 57.3 °F 30.04 in Calm     70 % 0.00 in
10:50 67.9 °F 57.8 °F 30.04 in SSW 1.2 mph 1.2 mph 70 % 0.00 in
10:55 68.5 °F 57.5 °F 30.04 in Calm     68 % 0.00 in
11:00 68.9 °F 57.5 °F 30.04 in NW 1.2 mph 1.2 mph 67 % 0.00 in
11:05 68.8 °F 57.4 °F 30.03 in NW 1.2 mph 1.2 mph 67 % 0.00 in
11:10 69.1 °F 58.5 °F 30.03 in ESE 1.2 mph 1.2 mph 69 % 0.00 in
11:15 69.6 °F 58.2 °F 30.03 in NNE 1.2 mph   67 % 0.00 in
11:20 70.3 °F 58.8 °F 30.02 in SE 1.2 mph   67 % 0.00 in
11:25 70.5 °F 58.6 °F 30.02 in Calm     66 % 0.00 in
11:30 71.0 °F 59.5 °F 30.02 in Calm     67 % 0.00 in
11:35 71.8 °F 59.4 °F 30.01 in Calm     65 % 0.00 in
11:40 72.0 °F 59.2 °F 30.01 in SE 1.2 mph 1.2 mph 64 % 0.00 in
11:45 71.9 °F 58.6 °F 30.00 in ESE 1.2 mph   63 % 0.00 in
11:50 72.0 °F 58.7 °F 30.00 in Calm     63 % 0.00 in
11:55 72.3 °F 59.0 °F 30.00 in Calm     63 % 0.00 in
12:00 72.8 °F 59.5 °F 30.00 in SE 1.2 mph   63 % 0.00 in
12:05 73.0 °F 59.2 °F 30.00 in Calm     62 % 0.00 in
12:10 73.3 °F 59.0 °F 29.99 in ENE 1.0 mph   61 % 0.00 in
12:15 73.5 °F 59.7 °F 29.99 in Calm     62 % 0.00 in
12:20 73.4 °F 59.6 °F 29.99 in NW 1.2 mph 1.2 mph 62 % 0.00 in
12:25 73.3 °F 59.0 °F 29.99 in Calm     61 % 0.00 in
12:30 73.4 °F 59.1 °F 29.99 in Calm     61 % 0.00 in
12:35 74.0 °F 59.7 °F 29.99 in North 1.2 mph 1.2 mph 61 % 0.00 in
12:40 73.9 °F 59.1 °F 29.98 in Calm     60 % 0.00 in
12:45 73.9 °F 59.1 °F 29.98 in Calm     60 % 0.00 in
12:50 74.1 °F 59.8 °F 29.98 in Calm     61 % 0.00 in
12:55 74.4 °F 58.7 °F 29.98 in Calm     58 % 0.00 in
13:00 74.7 °F 59.4 °F 29.98 in SSE 1.2 mph 1.2 mph 59 % 0.00 in
13:05 75.0 °F 58.7 °F 29.98 in West 1.2 mph 1.2 mph 57 % 0.00 in
13:10 75.1 °F 58.8 °F 29.98 in NW 1.2 mph 1.2 mph 57 % 0.00 in
13:15 75.1 °F 58.8 °F 29.97 in NW 1.2 mph 1.2 mph 57 % 0.00 in
13:20 75.0 °F 58.7 °F 29.97 in WSW 1.2 mph 1.2 mph 57 % 0.00 in
13:25 75.0 °F 58.7 °F 29.97 in South 1.2 mph   57 % 0.00 in
13:30 75.1 °F 58.3 °F 29.97 in Calm     56 % 0.00 in
13:35 75.2 °F 58.4 °F 29.97 in Calm     56 % 0.00 in
13:40 75.1 °F 58.3 °F 29.97 in NNE 1.2 mph 1.2 mph 56 % 0.00 in
13:45 75.5 °F 58.7 °F 29.97 in Calm     56 % 0.00 in
13:50 76.2 °F 59.9 °F 29.97 in Calm     57 % 0.00 in
13:55 76.6 °F 58.7 °F 29.97 in Calm     54 % 0.00 in
14:00 76.5 °F 58.6 °F 29.97 in NW 1.0 mph 1.0 mph 54 % 0.00 in
14:05 76.3 °F 58.4 °F 29.96 in WNW 1.2 mph   54 % 0.00 in
14:10 76.4 °F 58.5 °F 29.96 in WNW 1.2 mph 1.2 mph 54 % 0.00 in
14:15 76.6 °F 58.2 °F 29.96 in Calm     53 % 0.00 in
14:20 76.8 °F 58.9 °F 29.97 in North 1.2 mph 1.2 mph 54 % 0.00 in
14:25 76.7 °F 58.3 °F 29.97 in NW 1.2 mph 1.2 mph 53 % 0.00 in
14:30 76.7 °F 57.7 °F 29.96 in NW 1.2 mph 1.2 mph 52 % 0.00 in
14:35 76.8 °F 57.8 °F 29.96 in Calm     52 % 0.00 in
14:40 76.7 °F 58.3 °F 29.96 in Calm     53 % 0.00 in
14:45 76.6 °F 57.7 °F 29.96 in NW 2.3 mph   52 % 0.00 in
14:50 76.4 °F 58.0 °F 29.96 in Calm     53 % 0.00 in
14:55 76.5 °F 58.1 °F 29.96 in Calm     53 % 0.00 in
15:04 76.5 °F 58.1 °F 29.96 in NW 1.2 mph 1.2 mph 53 % 0.00 in
15:09 76.4 °F 58.5 °F 29.96 in Calm     54 % 0.00 in
15:14 76.2 °F 58.9 °F 29.96 in Calm     55 % 0.00 in
15:19 75.9 °F 58.6 °F 29.96 in West 1.2 mph   55 % 0.00 in
15:24 75.7 °F 58.4 °F 29.95 in Calm     55 % 0.00 in
15:29 75.4 °F 58.6 °F 29.95 in Calm     56 % 0.00 in
15:34 75.0 °F 58.7 °F 29.96 in Calm     57 % 0.00 in
15:39 74.9 °F 58.6 °F 29.95 in Calm     57 % 0.00 in
15:44 74.8 °F 59.0 °F 29.95 in Calm     58 % 0.00 in
15:49 74.5 °F 59.2 °F 29.95 in Calm     59 % 0.00 in
15:54 74.2 °F 58.9 °F 29.96 in Calm     59 % 0.00 in
15:59 73.8 °F 59.0 °F 29.95 in Calm     60 % 0.00 in
16:04 73.5 °F 59.2 °F 29.95 in Calm     61 % 0.00 in
16:09 73.3 °F 59.0 °F 29.95 in Calm     61 % 0.00 in
16:14 72.8 °F 59.5 °F 29.95 in Calm     63 % 0.00 in
16:25 71.4 °F 59.9 °F 29.95 in Calm     67 % 0.00 in
16:30 70.6 °F 59.5 °F 29.95 in Calm     68 % 0.00 in
16:35 69.8 °F 59.2 °F 29.95 in Calm     69 % 0.00 in
16:40 68.8 °F 59.0 °F 29.95 in Calm     71 % 0.00 in
16:42 68.3 °F 58.9 °F 29.95 in Calm     72 % 0.00 in
16:47 67.7 °F 59.1 °F 29.96 in Calm     74 % 0.00 in
16:52 67.1 °F 58.5 °F 29.96 in Calm     74 % 0.00 in
16:57 66.7 °F 58.5 °F 29.97 in Calm     75 % 0.00 in
17:02 66.2 °F 58.4 °F 29.97 in Calm     76 % 0.00 in
17:07 65.6 °F 58.2 °F 29.97 in Calm     77 % 0.00 in
17:12 65.5 °F 58.1 °F 29.97 in Calm     77 % 0.00 in
17:17 65.2 °F 58.2 °F 29.97 in Calm     78 % 0.00 in
17:23 64.8 °F 57.8 °F 29.97 in Calm     78 % 0.00 in
17:28 64.5 °F 57.8 °F 29.98 in Calm     79 % 0.00 in
17:33 64.0 °F 57.4 °F 29.98 in Calm     79 % 0.00 in
17:38 63.6 °F 57.3 °F 29.99 in Calm     80 % 0.00 in
17:43 63.3 °F 57.4 °F 29.98 in Calm     81 % 0.00 in
17:48 63.4 °F 57.5 °F 29.98 in Calm     81 % 0.00 in
17:53 63.4 °F 57.1 °F 29.98 in Calm     80 % 0.00 in
17:58 63.2 °F 57.3 °F 29.98 in Calm     81 % 0.00 in
18:03 62.9 °F 57.0 °F 29.99 in Calm     81 % 0.00 in
18:08 62.7 °F 57.1 °F 29.99 in Calm     82 % 0.00 in
18:13 62.8 °F 57.2 °F 29.99 in Calm     82 % 0.00 in
18:18 62.7 °F 57.1 °F 29.98 in Calm     82 % 0.00 in
18:23 62.6 °F 57.0 °F 29.99 in Calm     82 % 0.00 in
18:28 62.2 °F 56.6 °F 29.99 in Calm     82 % 0.00 in
18:33 61.6 °F 56.4 °F 29.99 in Calm     83 % 0.00 in
18:38 61.2 °F 56.3 °F 29.99 in Calm     84 % 0.00 in
18:43 61.0 °F 56.1 °F 29.99 in Calm     84 % 0.00 in
18:48 61.1 °F 56.2 °F 29.99 in Calm     84 % 0.00 in
18:58 60.4 °F 55.9 °F 29.99 in Calm     85 % 0.00 in
19:03 59.8 °F 55.3 °F 30.00 in Calm     85 % 0.00 in
19:08 59.4 °F 55.2 °F 30.00 in Calm     86 % 0.00 in
19:13 59.0 °F 55.1 °F 30.00 in Calm     87 % 0.00 in
19:23 58.6 °F 55.1 °F 30.00 in Calm     88 % 0.00 in
19:28 58.4 °F 54.9 °F 30.00 in Calm     88 % 0.00 in
19:33 58.0 °F 54.5 °F 30.01 in Calm     88 % 0.00 in
19:38 57.8 °F 54.6 °F 30.00 in Calm     89 % 0.00 in
19:43 57.9 °F 55.0 °F 30.01 in Calm     90 % 0.00 in
19:48 58.1 °F 54.9 °F 30.01 in Calm     89 % 0.00 in
19:54 58.0 °F 54.8 °F 30.01 in Calm     89 % 0.00 in
19:59 57.6 °F 54.1 °F 30.01 in Calm     88 % 0.00 in
20:04 57.4 °F 54.2 °F 30.01 in Calm     89 % 0.00 in
20:09 57.7 °F 54.8 °F 30.01 in Calm     90 % 0.00 in
20:14 58.0 °F 54.8 °F 30.01 in Calm     89 % 0.00 in
20:19 57.9 °F 54.7 °F 30.01 in Calm     89 % 0.00 in
20:24 57.6 °F 54.4 °F 30.01 in Calm     89 % 0.00 in
20:29 57.4 °F 54.2 °F 30.02 in Calm     89 % 0.00 in
20:34 57.0 °F 53.8 °F 30.01 in Calm     89 % 0.00 in
20:39 56.9 °F 54.0 °F 30.01 in Calm     90 % 0.00 in
20:44 56.7 °F 54.1 °F 30.01 in Calm     91 % 0.00 in
20:49 56.4 °F 53.5 °F 30.01 in Calm     90 % 0.00 in
20:54 55.8 °F 52.6 °F 30.01 in Calm     89 % 0.00 in
20:59 55.7 °F 53.1 °F 30.01 in Calm     91 % 0.00 in
21:04 55.7 °F 53.1 °F 30.01 in Calm     91 % 0.00 in
21:09 55.6 °F 53.0 °F 30.01 in Calm     91 % 0.00 in
21:14 55.5 °F 52.9 °F 30.01 in Calm     91 % 0.00 in
21:19 55.6 °F 53.3 °F 30.02 in Calm     92 % 0.00 in
21:24 55.6 °F 53.0 °F 30.02 in Calm     91 % 0.00 in
21:29 55.6 °F 53.3 °F 30.02 in Calm     92 % 0.00 in
21:34 55.7 °F 53.4 °F 30.01 in Calm     92 % 0.00 in
21:40 55.7 °F 53.7 °F 30.02 in Calm     93 % 0.00 in
21:45 55.9 °F 53.6 °F 30.02 in Calm     92 % 0.00 in
21:50 56.3 °F 53.7 °F 30.01 in Calm     91 % 0.00 in
21:55 56.4 °F 53.5 °F 30.01 in Calm     90 % 0.00 in
22:00 56.2 °F 53.3 °F 30.01 in Calm     90 % 0.00 in
22:05 56.0 °F 53.1 °F 30.01 in Calm     90 % 0.00 in
22:10 55.7 °F 52.8 °F 30.02 in Calm     90 % 0.00 in
22:15 55.5 °F 52.6 °F 30.02 in Calm     90 % 0.00 in
22:20 55.3 °F 52.7 °F 30.02 in Calm     91 % 0.00 in
22:25 55.1 °F 52.5 °F 30.02 in Calm     91 % 0.00 in
22:30 54.9 °F 52.3 °F 30.03 in Calm     91 % 0.00 in
22:35 54.7 °F 52.4 °F 30.03 in Calm     92 % 0.00 in
22:40 54.8 °F 52.5 °F 30.03 in Calm     92 % 0.00 in
22:45 54.9 °F 52.6 °F 30.03 in Calm     92 % 0.00 in
22:50 55.0 °F 52.7 °F 30.03 in Calm     92 % 0.00 in
22:55 54.9 °F 52.3 °F 30.03 in Calm     91 % 0.00 in
23:00 54.6 °F 52.0 °F 30.03 in Calm     91 % 0.00 in
23:05 54.4 °F 51.8 °F 30.03 in Calm     91 % 0.00 in
23:10 54.5 °F 52.2 °F 30.03 in Calm     92 % 0.00 in
23:15 54.4 °F 52.1 °F 30.03 in Calm     92 % 0.00 in
23:20 54.2 °F 51.9 °F 30.03 in Calm     92 % 0.00 in
23:30 53.7 °F 50.8 °F 30.04 in Calm     90 % 0.00 in
23:35 53.2 °F 50.3 °F 30.04 in Calm     90 % 0.00 in
23:40 52.7 °F 49.8 °F 30.04 in Calm     90 % 0.00 in
23:45 52.2 °F 49.7 °F 30.04 in Calm     91 % 0.00 in
23:50 52.4 °F 50.4 °F 30.04 in Calm     93 % 0.00 in
23:55 52.5 °F 50.5 °F 30.04 in Calm     93 % 0.00 in
Park Place, Exeter, Tulare County, California, USA
Compliments of Weather Underground - 2.75 mb